^^
Station Historical Data
Daily Summary for November 09, 2019 Units:  Metric    English   Both
« Previous Day
Next Day »
Daily Weekly Monthly Yearly Custom
  High: Low: Average:
Temperature: 7.8 °C -5.8 °C 1.9 °C
Dew Point: 3.2 °C -9.6 °C -0.6 °C
Humidity: 92% 72% 84%
Wind Speed: 38.6km/h 0km/h 10.9km/h
Wind Gust: 45.1km/h - -
Wind- - SW
Pressure: 1026.3 hPa 1014.4 hPa -
Precipitation: 0 mm    
Historical Graphs
 
 
Tabular Data for November 09, 2019
Time Temperature Dew Point Pressure Wind Wind Speed Wind Gust Humidity Rainfall Rate (Hourly) solar Conditions
00:00 3.8 °C 0.2 °C 1018.2 hPa NW 3.2 km/h 12.9 km/h 77% 0 mm 0.00 W/m2
00:05 3.8 °C 0.2 °C 1018.2 hPa NW 3.2 km/h 12.9 km/h 77% 0 mm 0.00 W/m2
00:10 3.9 °C 0.2 °C 1018.2 hPa WNW 6.4 km/h 12.9 km/h 77% 0 mm 0.00 W/m2
00:15 3.9 °C 0.2 °C 1018.5 hPa WNW 1.6 km/h 12.9 km/h 77% 0 mm 0.00 W/m2
00:20 4 °C 0.3 °C 1018.2 hPa Calm   4.8 km/h 77% 0 mm 0.00 W/m2
00:25 4.1 °C 0.4 °C 1018.2 hPa NNE 4.8 km/h 4.8 km/h 77% 0 mm 0.00 W/m2
00:30 3.9 °C 0.3 °C 1018.2 hPa NNE 6.4 km/h 9.7 km/h 77% 0 mm 0.00 W/m2
00:35 3.8 °C 0.1 °C 1018.2 hPa NNE 6.4 km/h 11.3 km/h 77% 0 mm 0.00 W/m2
00:40 3.6 °C -0.1 °C 1017.8 hPa NNE 11.3 km/h 14.5 km/h 77% 0 mm 0.00 W/m2
00:45 3.5 °C 0.2 °C 1018.2 hPa NNE 1.6 km/h 14.5 km/h 79% 0 mm 0.00 W/m2
00:50 3.5 °C 0 °C 1018.2 hPa NE 4.8 km/h 14.5 km/h 78% 0 mm 0.00 W/m2
00:55 3.4 °C 0.2 °C 1018.2 hPa NNE 6.4 km/h 14.5 km/h 79% 0 mm 0.00 W/m2
01:00 3.4 °C 0.1 °C 1018.2 hPa NNW 14.5 km/h 17.7 km/h 79% 0 mm 0.00 W/m2
01:05 3.4 °C 0.3 °C 1017.8 hPa North 12.9 km/h 19.3 km/h 80% 0 mm 0.00 W/m2
01:10 3.4 °C 0.3 °C 1018.2 hPa NNW 8 km/h 19.3 km/h 80% 0 mm 0.00 W/m2
01:15 3.5 °C 0.4 °C 1018.2 hPa NNW 6.4 km/h 16.1 km/h 80% 0 mm 0.00 W/m2
01:20 3.4 °C 0.3 °C 1018.2 hPa NNW 3.2 km/h 16.1 km/h 80% 0 mm 0.00 W/m2
01:25 3.5 °C 0.2 °C 1018.2 hPa NNW 4.8 km/h 16.1 km/h 79% 0 mm 0.00 W/m2
01:30 3.4 °C 0.2 °C 1018.2 hPa NW 4.8 km/h 16.1 km/h 79% 0 mm 0.00 W/m2
01:35 3.3 °C 0.1 °C 1018.2 hPa WNW 6.4 km/h 8 km/h 79% 0 mm 0.00 W/m2
01:40 3.2 °C -0.1 °C 1018.2 hPa West 4.8 km/h 8 km/h 79% 0 mm 0.00 W/m2
01:45 2.9 °C -0.2 °C 1018.2 hPa West 4.8 km/h 9.7 km/h 80% 0 mm 0.00 W/m2
01:50 2.8 °C -0.3 °C 1017.8 hPa WNW 6.4 km/h 9.7 km/h 80% 0 mm 0.00 W/m2
01:55 2.8 °C -0.3 °C 1017.8 hPa NW 6.4 km/h 12.9 km/h 80% 0 mm 0.00 W/m2
02:00 2.5 °C -0.4 °C 1017.5 hPa NW 11.3 km/h 12.9 km/h 81% 0 mm 0.00 W/m2
02:05 2.5 °C -0.3 °C 1017.5 hPa WNW 6.4 km/h 12.9 km/h 82% 0 mm 0.00 W/m2
02:10 2.3 °C -0.4 °C 1017.5 hPa WNW 3.2 km/h 12.9 km/h 82% 0 mm 0.00 W/m2
02:15 2.2 °C -0.6 °C 1017.8 hPa WNW 4.8 km/h 8 km/h 82% 0 mm 0.00 W/m2
02:20 2.1 °C -0.6 °C 1017.8 hPa WNW 3.2 km/h 6.4 km/h 83% 0 mm 0.00 W/m2
02:25 2 °C -0.6 °C 1017.8 hPa NW 4.8 km/h 6.4 km/h 83% 0 mm 0.00 W/m2
02:30 2 °C -0.4 °C 1018.2 hPa WNW 4.8 km/h 6.4 km/h 84% 0 mm 0.00 W/m2
02:35 2.2 °C -0.2 °C 1018.2 hPa WNW 4.8 km/h 9.7 km/h 84% 0 mm 0.00 W/m2
02:40 2.3 °C -0.1 °C 1017.8 hPa WNW 6.4 km/h 9.7 km/h 84% 0 mm 0.00 W/m2
02:45 2.3 °C -0.3 °C 1017.8 hPa WNW 9.7 km/h 9.7 km/h 83% 0 mm 0.00 W/m2
02:50 2.2 °C -0.4 °C 1017.5 hPa WNW 6.4 km/h 9.7 km/h 83% 0 mm 0.00 W/m2
02:55 1.9 °C 0.3 °C 1017.5 hPa West 6.4 km/h 11.3 km/h 89% 0 mm 0.00 W/m2
03:00 1.8 °C -0.6 °C 1017.5 hPa West 4.8 km/h 11.3 km/h 84% 0 mm 0.00 W/m2
03:05 1.7 °C -0.6 °C 1017.5 hPa West 4.8 km/h 9.7 km/h 85% 0 mm 0.00 W/m2
03:10 1.6 °C -0.7 °C 1017.5 hPa West 3.2 km/h 9.7 km/h 85% 0 mm 0.00 W/m2
03:15 1.6 °C -0.7 °C 1017.5 hPa West 3.2 km/h 8 km/h 85% 0 mm 0.00 W/m2
03:20 1.6 °C -0.6 °C 1017.5 hPa WSW 3.2 km/h 8 km/h 86% 0 mm 0.00 W/m2
03:25 1.4 °C -0.7 °C 1017.2 hPa Calm   4.8 km/h 86% 0 mm 0.00 W/m2
03:30 1.3 °C -0.6 °C 1017.2 hPa Calm   4.8 km/h 87% 0 mm 0.00 W/m2
03:35 1.3 °C -0.7 °C 1017.2 hPa Calm   4.8 km/h 87% 0 mm 0.00 W/m2
03:40 1.2 °C -0.9 °C 1017.2 hPa Calm   4.8 km/h 86% 0 mm 0.00 W/m2
03:45 1.1 °C -0.9 °C 1017.2 hPa WSW 3.2 km/h 3.2 km/h 87% 0 mm 0.00 W/m2
03:50 1 °C -0.8 °C 1017.2 hPa WSW 3.2 km/h 4.8 km/h 88% 0 mm 0.00 W/m2
03:55 0.9 °C -0.9 °C 1017.2 hPa WSW 3.2 km/h 4.8 km/h 88% 0 mm 0.00 W/m2
04:00 0.8 °C -0.9 °C 1017.2 hPa WSW 4.8 km/h 6.4 km/h 88% 0 mm 0.00 W/m2
04:05 0.7 °C -1.1 °C 1017.2 hPa WSW 4.8 km/h 6.4 km/h 88% 0 mm 0.00 W/m2
04:10 0.6 °C -1 °C 1017.2 hPa WSW 4.8 km/h 6.4 km/h 89% 0 mm 0.00 W/m2
04:15 0.6 °C -1 °C 1017.2 hPa WSW 1.6 km/h 6.4 km/h 89% 0 mm 0.00 W/m2
04:20 0.6 °C -0.8 °C 1017.2 hPa West 4.8 km/h 6.4 km/h 90% 0 mm 0.00 W/m2
04:25 0.8 °C -0.7 °C 1017.2 hPa West 4.8 km/h 6.4 km/h 90% 0 mm 0.00 W/m2
04:30 0.9 °C -0.6 °C 1017.2 hPa WNW 4.8 km/h 6.4 km/h 90% 0 mm 0.00 W/m2
04:35 1 °C -0.6 °C 1016.8 hPa WNW 1.6 km/h 6.4 km/h 89% 0 mm 0.00 W/m2
04:40 1 °C -0.6 °C 1016.8 hPa WNW 1.6 km/h 6.4 km/h 89% 0 mm 0.00 W/m2
04:45 0.9 °C -0.7 °C 1016.8 hPa Calm   6.4 km/h 89% 0 mm 0.00 W/m2
04:50 0.9 °C -0.7 °C 1016.8 hPa Calm   3.2 km/h 89% 0 mm 0.00 W/m2
04:55 0.9 °C -0.6 °C 1016.8 hPa Calm   3.2 km/h 90% 0 mm 0.00 W/m2
05:00 1 °C -0.4 °C 1016.8 hPa Calm     90% 0 mm 0.00 W/m2
05:05 1.1 °C -0.3 °C 1016.8 hPa WNW 1.6 km/h 1.6 km/h 90% 0 mm 0.00 W/m2
05:10 1.2 °C -0.4 °C 1017.2 hPa WNW 3.2 km/h 4.8 km/h 89% 0 mm 0.00 W/m2
05:15 1.1 °C -0.5 °C 1017.2 hPa WNW 3.2 km/h 4.8 km/h 89% 0 mm 0.00 W/m2
05:20 1.1 °C -0.5 °C 1016.8 hPa WNW 1.6 km/h 4.8 km/h 89% 0 mm 0.00 W/m2
05:25 1.1 °C -0.5 °C 1016.8 hPa WNW 3.2 km/h 4.8 km/h 89% 0 mm 0.00 W/m2
05:30 1.1 °C -0.5 °C 1016.8 hPa WNW 4.8 km/h 4.8 km/h 89% 0 mm 0.00 W/m2
05:35 1.1 °C -0.3 °C 1016.5 hPa NNW 4.8 km/h 6.4 km/h 90% 0 mm 0.00 W/m2
05:40 1.2 °C -0.3 °C 1016.5 hPa NNW 3.2 km/h 6.4 km/h 90% 0 mm 0.00 W/m2
05:45 1.3 °C -0.2 °C 1016.5 hPa NNW 3.2 km/h 6.4 km/h 90% 0 mm 0.00 W/m2
05:50 1.3 °C -0.1 °C 1016.1 hPa NNW 1.6 km/h 6.4 km/h 90% 0 mm 0.00 W/m2
05:55 1.4 °C 0 °C 1016.1 hPa Calm   4.8 km/h 90% 0 mm 0.00 W/m2
06:00 1.5 °C -0.1 °C 1016.1 hPa NNW 4.8 km/h 6.4 km/h 89% 0 mm 0.00 W/m2
06:05 1.6 °C 0.1 °C 1016.1 hPa North 3.2 km/h 6.4 km/h 90% 0 mm 0.00 W/m2
06:10 1.5 °C -0.3 °C 1016.5 hPa NE 1.6 km/h 6.4 km/h 88% 0 mm 0.00 W/m2
06:15 1.3 °C -0.7 °C 1016.1 hPa Calm   6.4 km/h 87% 0 mm 0.00 W/m2
06:20 1.1 °C -0.7 °C 1016.1 hPa Calm   3.2 km/h 88% 0 mm 0.00 W/m2
06:25 1 °C -0.6 °C 1016.5 hPa Calm   1.6 km/h 89% 0 mm 0.00 W/m2
06:30 0.8 °C -0.8 °C 1016.1 hPa Calm   1.6 km/h 89% 0 mm 0.00 W/m2
06:35 0.8 °C -0.8 °C 1016.1 hPa ESE 4.8 km/h 4.8 km/h 89% 0 mm 0.00 W/m2
06:40 0.7 °C -0.8 °C 1016.1 hPa ESE 1.6 km/h 4.8 km/h 90% 0 mm 0.00 W/m2
06:45 0.8 °C -0.5 °C 1016.1 hPa Calm   4.8 km/h 91% 0 mm 0.00 W/m2
06:50 0.9 °C -0.4 °C 1015.8 hPa Calm   4.8 km/h 91% 0 mm 0.00 W/m2
06:55 1 °C -0.4 °C 1015.8 hPa ESE 3.2 km/h 4.8 km/h 90% 0 mm 0.00 W/m2
07:00 1.1 °C -0.4 °C 1015.8 hPa Calm   3.2 km/h 90% 0 mm 0.00 W/m2
07:05 1.1 °C -0.3 °C 1015.8 hPa Calm   3.2 km/h 90% 0 mm 0.00 W/m2
07:10 1.1 °C -0.3 °C 1015.8 hPa Calm   3.2 km/h 90% 0 mm 0.00 W/m2
07:15 1.1 °C -0.5 °C 1016.1 hPa ESE 1.6 km/h 3.2 km/h 89% 0 mm 0.00 W/m2
07:20 1.1 °C -0.6 °C 1015.8 hPa South 4.8 km/h 4.8 km/h 89% 0 mm 0.00 W/m2
07:25 0.9 °C -0.7 °C 1016.1 hPa SSW 1.6 km/h 4.8 km/h 89% 0 mm 0.00 W/m2
07:30 0.7 °C -0.7 °C 1016.1 hPa Calm   4.8 km/h 90% 0 mm 0.00 W/m2
07:35 0.6 °C -0.8 °C 1015.8 hPa Calm   3.2 km/h 90% 0 mm 0.00 W/m2
07:40 0.6 °C -0.7 °C 1015.8 hPa Calm   3.2 km/h 91% 0 mm 0.00 W/m2
07:45 0.6 °C -0.7 °C 1015.8 hPa Calm   3.2 km/h 91% 0 mm 7.00 W/m2
07:50 0.6 °C -0.7 °C 1015.8 hPa Calm   1.6 km/h 91% 0 mm 9.00 W/m2
07:55 0.7 °C -0.6 °C 1015.5 hPa Calm   1.6 km/h 91% 0 mm 11.00 W/m2
08:00 0.7 °C -0.6 °C 1015.5 hPa Calm     91% 0 mm 14.00 W/m2
08:05 0.8 °C -0.5 °C 1015.8 hPa SSW 1.6 km/h 3.2 km/h 91% 0 mm 19.00 W/m2
08:10 0.8 °C -0.4 °C 1015.5 hPa Calm   3.2 km/h 91% 0 mm 26.00 W/m2
08:15 1 °C -0.3 °C 1015.5 hPa South 3.2 km/h 3.2 km/h 91% 0 mm 28.00 W/m2
08:20 1.1 °C -0.2 °C 1015.8 hPa South 1.6 km/h 3.2 km/h 91% 0 mm 39.00 W/m2
08:25 1.1 °C -0.2 °C 1015.5 hPa South 1.6 km/h 3.2 km/h 91% 0 mm 39.00 W/m2
08:30 1.3 °C -0.2 °C 1015.5 hPa East 1.6 km/h 4.8 km/h 90% 0 mm 42.00 W/m2
08:35 1.2 °C -0.2 °C 1015.5 hPa East 1.6 km/h 4.8 km/h 90% 0 mm 47.00 W/m2
08:40 1.2 °C -0.4 °C 1015.8 hPa East 3.2 km/h 4.8 km/h 89% 0 mm 56.00 W/m2
08:45 1.3 °C -0.2 °C 1015.8 hPa East 4.8 km/h 4.8 km/h 90% 0 mm 62.00 W/m2
08:50 1.3 °C -0.2 °C 1015.8 hPa East 4.8 km/h 6.4 km/h 90% 0 mm 60.00 W/m2
08:55 1.3 °C -0.1 °C 1015.5 hPa ENE 4.8 km/h 6.4 km/h 90% 0 mm 69.00 W/m2
09:00 1.4 °C -0.1 °C 1015.5 hPa ENE 6.4 km/h 6.4 km/h 90% 0 mm 76.00 W/m2
09:05 1.5 °C -0.1 °C 1015.5 hPa Calm   6.4 km/h 89% 0 mm 74.00 W/m2
09:10 1.6 °C 0.2 °C 1015.5 hPa Calm   6.4 km/h 90% 0 mm 72.00 W/m2
09:15 1.8 °C 0.3 °C 1015.5 hPa East 1.6 km/h 6.4 km/h 90% 0 mm 69.00 W/m2
09:20 1.8 °C 0.4 °C 1015.8 hPa SSE 1.6 km/h 6.4 km/h 90% 0 mm 76.00 W/m2
09:25 1.9 °C 0.5 °C 1015.8 hPa Calm   4.8 km/h 90% 0 mm 97.00 W/m2
09:30 2 °C 0.4 °C 1015.5 hPa Calm   3.2 km/h 89% 0 mm 118.00 W/m2
09:35 2.1 °C 0.5 °C 1015.5 hPa SSE 1.6 km/h 3.2 km/h 89% 0 mm 97.00 W/m2
09:40 2.3 °C 0.7 °C 1015.5 hPa SSE 1.6 km/h 3.2 km/h 89% 0 mm 95.00 W/m2
09:45 2.4 °C 0.8 °C 1015.5 hPa Calm   3.2 km/h 89% 0 mm 84.00 W/m2
09:50 2.6 °C 0.8 °C 1015.5 hPa Calm   3.2 km/h 88% 0 mm 81.00 W/m2
09:55 2.7 °C 0.9 °C 1015.5 hPa Calm   3.2 km/h 88% 0 mm 77.00 W/m2
10:00 2.8 °C 1.1 °C 1015.5 hPa SSE 6.4 km/h 6.4 km/h 88% 0 mm 84.00 W/m2
10:05 2.9 °C 1.1 °C 1015.5 hPa SSE 1.6 km/h 8 km/h 88% 0 mm 97.00 W/m2
10:10 3 °C 1.1 °C 1015.1 hPa SSE 6.4 km/h 8 km/h 87% 0 mm 105.00 W/m2
10:15 3.1 °C 1.3 °C 1015.5 hPa SSE 3.2 km/h 8 km/h 88% 0 mm 116.00 W/m2
10:20 3.2 °C 1.2 °C 1015.5 hPa SSE 4.8 km/h 8 km/h 87% 0 mm 141.00 W/m2
10:25 3.3 °C 2.2 °C 1015.1 hPa ESE 4.8 km/h 8 km/h 92% 0 mm 197.00 W/m2
10:30 3.6 °C 1.6 °C 1015.1 hPa SE 6.4 km/h 6.4 km/h 87% 0 mm 227.00 W/m2
10:35 3.8 °C 1.6 °C 1015.1 hPa ESE 6.4 km/h 11.3 km/h 85% 0 mm 292.00 W/m2
10:40 4.2 °C 1.8 °C 1015.1 hPa SE 6.4 km/h 11.3 km/h 84% 0 mm 223.00 W/m2
10:45 4.3 °C 1.7 °C 1015.1 hPa ESE 6.4 km/h 11.3 km/h 83% 0 mm 204.00 W/m2
10:50 4.4 °C 1.8 °C 1015.5 hPa SSE 8 km/h 12.9 km/h 83% 0 mm 172.00 W/m2
10:55 4.4 °C 1.8 °C 1015.5 hPa SE 6.4 km/h 12.9 km/h 83% 0 mm 167.00 W/m2
11:00 4.4 °C 1.8 °C 1015.5 hPa SSE 8 km/h 12.9 km/h 83% 0 mm 165.00 W/m2
11:05 4.5 °C 1.9 °C 1015.5 hPa SE 12.9 km/h 14.5 km/h 83% 0 mm 134.00 W/m2
11:10 4.4 °C 1.8 °C 1015.1 hPa ESE 9.7 km/h 14.5 km/h 83% 0 mm 141.00 W/m2
11:15 4.4 °C 1.8 °C 1015.1 hPa SE 8 km/h 12.9 km/h 83% 0 mm 160.00 W/m2
11:20 4.6 °C 1.7 °C 1015.5 hPa SE 4.8 km/h 12.9 km/h 82% 0 mm 193.00 W/m2
11:25 4.6 °C 1.8 °C 1015.5 hPa SE 6.4 km/h 12.9 km/h 82% 0 mm 202.00 W/m2
11:30 4.8 °C 1.9 °C 1015.5 hPa SSE 8 km/h 12.9 km/h 82% 0 mm 199.00 W/m2
11:35 4.9 °C 2.1 °C 1015.1 hPa SSE 6.4 km/h 12.9 km/h 82% 0 mm 174.00 W/m2
11:40 5.1 °C 2.1 °C 1015.1 hPa SE 6.4 km/h 12.9 km/h 81% 0 mm 220.00 W/m2
11:45 5.2 °C 2.1 °C 1015.1 hPa ESE 11.3 km/h 14.5 km/h 80% 0 mm 186.00 W/m2
11:50 5.1 °C 1.9 °C 1015.1 hPa SE 12.9 km/h 14.5 km/h 80% 0 mm 141.00 W/m2
11:55 5.1 °C 1.9 °C 1014.8 hPa SE 11.3 km/h 14.5 km/h 80% 0 mm 127.00 W/m2
12:00 5.1 °C 1.9 °C 1014.8 hPa ESE 6.4 km/h 14.5 km/h 80% 0 mm 137.00 W/m2
12:05 5.1 °C 1.9 °C 1014.8 hPa SSE 8 km/h 14.5 km/h 80% 0 mm 134.00 W/m2
12:10 5.1 °C 1.9 °C 1015.1 hPa SE 6.4 km/h 12.9 km/h 80% 0 mm 118.00 W/m2
12:15 5.2 °C 2.1 °C 1014.8 hPa SSE 8 km/h 12.9 km/h 80% 0 mm 137.00 W/m2
12:20 5.3 °C 2.2 °C 1014.8 hPa SE 8 km/h 12.9 km/h 80% 0 mm 218.00 W/m2
12:25 5.6 °C 2.4 °C 1014.8 hPa SSE 8 km/h 12.9 km/h 80% 0 mm 278.00 W/m2
12:30 5.8 °C 2.7 °C 1014.8 hPa SE 6.4 km/h 12.9 km/h 80% 0 mm 276.00 W/m2
12:35 5.9 °C 2.6 °C 1014.8 hPa ESE 4.8 km/h 12.9 km/h 79% 0 mm 230.00 W/m2
12:40 6.2 °C 2.6 °C 1014.4 hPa SE 8 km/h 11.3 km/h 78% 0 mm 253.00 W/m2
12:45 6.3 °C 2.7 °C 1014.4 hPa SE 4.8 km/h 11.3 km/h 78% 0 mm 308.00 W/m2
12:50 6.4 °C 2.8 °C 1014.4 hPa ESE 6.4 km/h 11.3 km/h 78% 0 mm 251.00 W/m2
12:55 6.4 °C 2.5 °C 1014.4 hPa ESE 11.3 km/h 11.3 km/h 76% 0 mm 243.00 W/m2
13:00 6.6 °C 2.8 °C 1014.4 hPa ESE 4.8 km/h 11.3 km/h 77% 0 mm 348.00 W/m2
13:05 6.8 °C 2.9 °C 1014.4 hPa SE 1.6 km/h 11.3 km/h 76% 0 mm 290.00 W/m2
13:10 6.9 °C 2.8 °C 1014.4 hPa South 8 km/h 11.3 km/h 75% 0 mm 251.00 W/m2
13:15 7.1 °C 2.9 °C 1014.8 hPa SE 4.8 km/h 11.3 km/h 75% 0 mm 320.00 W/m2
13:20 7.4 °C 3.1 °C 1014.4 hPa SSE 3.2 km/h 8 km/h 74% 0 mm 364.00 W/m2
13:25 7.6 °C 3 °C 1014.4 hPa East 4.8 km/h 8 km/h 73% 0 mm 251.00 W/m2
13:30 7.7 °C 3.1 °C 1014.8 hPa East 1.6 km/h 8 km/h 73% 0 mm 237.00 W/m2
13:35 7.8 °C 3.1 °C 1014.8 hPa SSW 4.8 km/h 6.4 km/h 72% 0 mm 202.00 W/m2
13:40 7.8 °C 3.1 °C 1014.8 hPa SSW 3.2 km/h 6.4 km/h 72% 0 mm 220.00 W/m2
13:45 7.8 °C 3.1 °C 1014.8 hPa South 3.2 km/h 6.4 km/h 72% 0 mm 193.00 W/m2
13:50 7.7 °C 3.2 °C 1014.8 hPa Calm   6.4 km/h 73% 0 mm 167.00 W/m2
13:55 7.7 °C 3 °C 1014.4 hPa South 3.2 km/h 4.8 km/h 72% 0 mm 134.00 W/m2
14:00 7.6 °C 2.9 °C 1014.4 hPa SSE 3.2 km/h 4.8 km/h 72% 0 mm 121.00 W/m2
14:05 7.5 °C 2.8 °C 1014.4 hPa SSE 3.2 km/h 4.8 km/h 72% 0 mm 121.00 W/m2
14:10 7.4 °C 2.7 °C 1014.4 hPa Calm   6.4 km/h 72% 0 mm 162.00 W/m2
14:15 7.4 °C 2.9 °C 1014.4 hPa SSE 1.6 km/h 6.4 km/h 73% 0 mm 130.00 W/m2
14:20 7.6 °C 2.8 °C 1014.4 hPa SSE 1.6 km/h 4.8 km/h 72% 0 mm 114.00 W/m2
14:25 7.6 °C 2.8 °C 1014.4 hPa ENE 4.8 km/h 4.8 km/h 72% 0 mm 127.00 W/m2
14:30 7.6 °C 3 °C 1014.8 hPa North 6.4 km/h 6.4 km/h 73% 0 mm 137.00 W/m2
14:35 7.7 °C 3.1 °C 1014.8 hPa NNE 4.8 km/h 8 km/h 73% 0 mm 100.00 W/m2
14:40 7.7 °C 2.9 °C 1014.8 hPa NNE 1.6 km/h 11.3 km/h 72% 0 mm 72.00 W/m2
14:45 7.7 °C 3 °C 1015.1 hPa NNE 3.2 km/h 11.3 km/h 72% 0 mm 63.00 W/m2
14:50 7.6 °C 2.9 °C 1014.8 hPa NW 6.4 km/h 9.7 km/h 72% 0 mm 58.00 W/m2
14:55 7.4 °C 2.7 °C 1015.1 hPa NNW 4.8 km/h 9.7 km/h 72% 0 mm 70.00 W/m2
15:00 7.4 °C 2.9 °C 1015.1 hPa North 4.8 km/h 8 km/h 73% 0 mm 60.00 W/m2
15:05 7.3 °C 2.8 °C 1015.5 hPa North 6.4 km/h 8 km/h 73% 0 mm 39.00 W/m2
15:10 7.1 °C 2.6 °C 1015.5 hPa NNW 9.7 km/h 9.7 km/h 73% 0 mm 33.00 W/m2
15:15 7.1 °C 2.6 °C 1015.5 hPa North 8 km/h 11.3 km/h 73% 0 mm 49.00 W/m2
15:20 7 °C 2.7 °C 1015.5 hPa North 6.4 km/h 11.3 km/h 74% 0 mm 56.00 W/m2
15:25 7 °C 2.7 °C 1015.5 hPa North 4.8 km/h 9.7 km/h 74% 0 mm 58.00 W/m2
15:30 7 °C 2.7 °C 1015.8 hPa North 9.7 km/h 14.5 km/h 74% 0 mm 62.00 W/m2
15:35 7 °C 2.9 °C 1015.8 hPa North 12.9 km/h 17.7 km/h 75% 0 mm 49.00 W/m2
15:40 6.9 °C 2.8 °C 1015.8 hPa North 19.3 km/h 20.9 km/h 75% 0 mm 49.00 W/m2
15:45 6.8 °C 2.7 °C 1015.8 hPa North 12.9 km/h 20.9 km/h 75% 0 mm 33.00 W/m2
15:50 6.6 °C 3 °C 1016.1 hPa NNW 19.3 km/h 27.4 km/h 78% 0 mm 35.00 W/m2
15:55 6.2 °C 2.7 °C 1016.1 hPa NNW 22.5 km/h 27.4 km/h 78% 0 mm 33.00 W/m2
16:00 5.9 °C 2.6 °C 1016.1 hPa North 14.5 km/h 29 km/h 79% 0 mm 33.00 W/m2
16:05 5.7 °C 2.6 °C 1016.1 hPa NNE 22.5 km/h 29 km/h 80% 0 mm 30.00 W/m2
16:10 5.6 °C 2.4 °C 1016.5 hPa North 19.3 km/h 29 km/h 80% 0 mm 21.00 W/m2
16:15 5.2 °C 2.2 °C 1016.8 hPa North 19.3 km/h 30.6 km/h 81% 0 mm 14.00 W/m2
16:20 4.9 °C 2.1 °C 1017.2 hPa NNE 14.5 km/h 30.6 km/h 82% 0 mm 12.00 W/m2
16:25 4.7 °C 2.2 °C 1017.2 hPa North 27.4 km/h 32.2 km/h 84% 0 mm 11.00 W/m2
16:30 4.4 °C 2 °C 1017.2 hPa North 29 km/h 32.2 km/h 84% 0 mm 11.00 W/m2
16:35 4.3 °C 2 °C 1017.2 hPa North 25.7 km/h 33.8 km/h 85% 0 mm 7.00 W/m2
16:40 4.2 °C 2.1 °C 1017.5 hPa North 22.5 km/h 33.8 km/h 86% 0 mm 5.00 W/m2
16:45 4.1 °C 2.1 °C 1017.5 hPa North 27.4 km/h 33.8 km/h 87% 0 mm 0.00 W/m2
16:50 3.9 °C 2 °C 1017.8 hPa North 25.7 km/h 33.8 km/h 87% 0 mm 0.00 W/m2
16:55 3.8 °C 1.9 °C 1018.2 hPa NNW 22.5 km/h 33.8 km/h 87% 0 mm 0.00 W/m2
17:00 3.7 °C 1.8 °C 1018.2 hPa North 19.3 km/h 33.8 km/h 87% 0 mm 0.00 W/m2
17:05 3.5 °C 1.6 °C 1018.2 hPa North 22.5 km/h 33.8 km/h 87% 0 mm 0.00 W/m2
17:10 3.3 °C 1.3 °C 1018.2 hPa North 24.1 km/h 33.8 km/h 87% 0 mm 0.00 W/m2
17:15 3.1 °C 1.1 °C 1018.2 hPa NNE 16.1 km/h 33.8 km/h 87% 0 mm 0.00 W/m2
17:20 2.8 °C 0.9 °C 1018.2 hPa North 19.3 km/h 33.8 km/h 87% 0 mm 0.00 W/m2
17:25 2.7 °C 0.7 °C 1018.2 hPa North 27.4 km/h 32.2 km/h 87% 0 mm 0.00 W/m2
17:30 2.5 °C 0.6 °C 1018.5 hPa North 29 km/h 33.8 km/h 87% 0 mm 0.00 W/m2
17:35 2.3 °C 0.6 °C 1018.5 hPa North 25.7 km/h 33.8 km/h 88% 0 mm 0.00 W/m2
17:40 2.2 °C 0.4 °C 1018.5 hPa North 17.7 km/h 33.8 km/h 88% 0 mm 0.00 W/m2
17:45 2.2 °C 0.4 °C 1018.8 hPa NNW 19.3 km/h 33.8 km/h 88% 0 mm 0.00 W/m2
17:50 2.1 °C 0.3 °C 1018.8 hPa North 19.3 km/h 33.8 km/h 88% 0 mm 0.00 W/m2
17:55 2 °C 0.2 °C 1019.2 hPa NNW 25.7 km/h 29 km/h 88% 0 mm 0.00 W/m2
18:00 2 °C 0.2 °C 1019.2 hPa NNW 16.1 km/h 29 km/h 88% 0 mm 0.00 W/m2
18:05 1.9 °C 0.2 °C 1019.2 hPa North 20.9 km/h 29 km/h 88% 0 mm 0.00 W/m2
18:10 1.8 °C 0.1 °C 1019.2 hPa NNW 22.5 km/h 32.2 km/h 88% 0 mm 0.00 W/m2
18:15 1.7 °C -0.1 °C 1019.5 hPa NW 25.7 km/h 32.2 km/h 88% 0 mm 0.00 W/m2
18:20 1.6 °C -0.2 °C 1019.5 hPa NNW 14.5 km/h 32.2 km/h 88% 0 mm 0.00 W/m2
18:25 1.5 °C -0.3 °C 1019.5 hPa North 22.5 km/h 32.2 km/h 88% 0 mm 0.00 W/m2
18:30 1.4 °C -0.6 °C 1019.5 hPa NNW 17.7 km/h 32.2 km/h 87% 0 mm 0.00 W/m2
18:35 1.3 °C -0.4 °C 1019.9 hPa NNW 19.3 km/h 32.2 km/h 88% 0 mm 0.00 W/m2
18:40 1.2 °C -0.7 °C 1019.9 hPa NNW 17.7 km/h 30.6 km/h 87% 0 mm 0.00 W/m2
18:45 1.1 °C -0.8 °C 1019.9 hPa North 20.9 km/h 30.6 km/h 87% 0 mm 0.00 W/m2
18:50 1.1 °C -0.7 °C 1020.2 hPa North 25.7 km/h 29 km/h 88% 0 mm 0.00 W/m2
18:55 0.9 °C -0.8 °C 1020.5 hPa North 19.3 km/h 30.6 km/h 88% 0 mm 0.00 W/m2
19:00 0.8 °C -0.8 °C 1020.5 hPa NNW 24.1 km/h 30.6 km/h 89% 0 mm 0.00 W/m2
19:05 0.7 °C -0.9 °C 1020.9 hPa North 25.7 km/h 33.8 km/h 89% 0 mm 0.00 W/m2
19:10 0.6 °C -1 °C 1021.2 hPa NW 19.3 km/h 37 km/h 89% 0 mm 0.00 W/m2
19:15 0.3 °C -1.6 °C 1021.2 hPa North 25.7 km/h 38.6 km/h 87% 0 mm 0.00 W/m2
19:20 0.1 °C -1.8 °C 1021.2 hPa NNW 30.6 km/h 38.6 km/h 87% 0 mm 0.00 W/m2
19:25 -0.1 °C -1.8 °C 1021.6 hPa North 20.9 km/h 38.6 km/h 88% 0 mm 0.00 W/m2
19:30 -0.3 °C -2 °C 1021.9 hPa North 38.6 km/h 43.5 km/h 88% 0 mm 0.00 W/m2
19:35 -0.6 °C -2.3 °C 1021.9 hPa NNW 22.5 km/h 43.5 km/h 88% 0 mm 0.00 W/m2
19:40 -0.7 °C -2.4 °C 1022.2 hPa North 20.9 km/h 43.5 km/h 88% 0 mm 0.00 W/m2
19:45 -0.8 °C -2.6 °C 1022.2 hPa North 22.5 km/h 43.5 km/h 88% 0 mm 0.00 W/m2
19:50 -0.9 °C -2.6 °C 1022.6 hPa NNW 20.9 km/h 37 km/h 89% 0 mm 0.00 W/m2
19:55 -1.1 °C -2.7 °C 1022.6 hPa NNW 29 km/h 37 km/h 89% 0 mm 0.00 W/m2
20:00 -1.3 °C -3 °C 1022.2 hPa NNW 22.5 km/h 37 km/h 88% 0 mm 0.00 W/m2
20:05 -1.4 °C -3.2 °C 1022.6 hPa NNW 24.1 km/h 37 km/h 88% 0 mm 0.00 W/m2
20:10 -1.5 °C -3.2 °C 1022.2 hPa North 24.1 km/h 37 km/h 88% 0 mm 0.00 W/m2
20:15 -1.6 °C -3.3 °C 1022.2 hPa NNW 32.2 km/h 37 km/h 88% 0 mm 0.00 W/m2
20:20 -1.7 °C -3.4 °C 1022.6 hPa NNW 25.7 km/h 35.4 km/h 88% 0 mm 0.00 W/m2
20:25 -1.8 °C -3.7 °C 1022.6 hPa NNW 22.5 km/h 32.2 km/h 87% 0 mm 0.00 W/m2
20:30 -1.9 °C -3.8 °C 1022.6 hPa NNW 32.2 km/h 40.2 km/h 87% 0 mm 0.00 W/m2
20:35 -2.1 °C -3.8 °C 1022.6 hPa NNW 20.9 km/h 40.2 km/h 88% 0 mm 0.00 W/m2
20:40 -2.3 °C -4.3 °C 1022.6 hPa NNW 32.2 km/h 45.1 km/h 86% 0 mm 0.00 W/m2
20:45 -2.6 °C -4.7 °C 1022.6 hPa North 35.4 km/h 45.1 km/h 85% 0 mm 0.00 W/m2
20:50 -2.7 °C -4.9 °C 1022.9 hPa North 29 km/h 45.1 km/h 85% 0 mm 0.00 W/m2
20:55 -2.9 °C -5.2 °C 1022.9 hPa NNW 29 km/h 41.8 km/h 84% 0 mm 0.00 W/m2
21:00 -3.1 °C -5.4 °C 1022.9 hPa North 22.5 km/h 41.8 km/h 84% 0 mm 0.00 W/m2
21:05 -3.2 °C -5.5 °C 1023.2 hPa NNW 24.1 km/h 41.8 km/h 84% 0 mm 0.00 W/m2
21:10 -3.2 °C -5.6 °C 1023.6 hPa NNW 19.3 km/h 41.8 km/h 84% 0 mm 0.00 W/m2
21:15 -3.3 °C -5.7 °C 1024.3 hPa NNW 24.1 km/h 38.6 km/h 84% 0 mm 0.00 W/m2
21:20 -3.4 °C -5.6 °C 1024.6 hPa NNW 25.7 km/h 38.6 km/h 85% 0 mm 0.00 W/m2
21:25 -3.5 °C -5.7 °C 1024.6 hPa NW 22.5 km/h 38.6 km/h 85% 0 mm 0.00 W/m2
21:30 -3.5 °C -5.5 °C 1024.9 hPa NW 24.1 km/h 37 km/h 86% 0 mm 0.00 W/m2
21:35 -3.6 °C -5.6 °C 1024.9 hPa NNW 17.7 km/h 37 km/h 86% 0 mm 0.00 W/m2
21:40 -3.7 °C -5.7 °C 1024.9 hPa NNW 25.7 km/h 37 km/h 86% 0 mm 0.00 W/m2
21:45 -3.8 °C -6.2 °C 1025.3 hPa NW 20.9 km/h 37 km/h 84% 0 mm 0.00 W/m2
21:50 -3.9 °C -6.4 °C 1025.3 hPa North 27.4 km/h 32.2 km/h 83% 0 mm 0.00 W/m2
21:55 -4 °C -6.4 °C 1025.3 hPa NW 20.9 km/h 33.8 km/h 83% 0 mm 0.00 W/m2
22:00 -4.1 °C -6.3 °C 1025.3 hPa NW 24.1 km/h 33.8 km/h 84% 0 mm 0.00 W/m2
22:05 -4.1 °C -6.4 °C 1025.3 hPa NNW 27.4 km/h 32.2 km/h 84% 0 mm 0.00 W/m2
22:10 -4.1 °C -6.4 °C 1024.9 hPa NNW 20.9 km/h 32.2 km/h 84% 0 mm 0.00 W/m2
22:15 -4.2 °C -6.3 °C 1025.3 hPa NW 19.3 km/h 32.2 km/h 85% 0 mm 0.00 W/m2
22:20 -4.2 °C -6.5 °C 1025.6 hPa NNW 17.7 km/h 32.2 km/h 84% 0 mm 0.00 W/m2
22:25 -4.4 °C -7.2 °C 1025.6 hPa NW 32.2 km/h 37 km/h 81% 0 mm 0.00 W/m2
22:30 -4.6 °C -7.9 °C 1025.6 hPa NNW 33.8 km/h 37 km/h 78% 0 mm 0.00 W/m2
22:35 -4.7 °C -7.9 °C 1025.6 hPa North 16.1 km/h 37 km/h 78% 0 mm 0.00 W/m2
22:40 -4.7 °C -7.8 °C 1025.6 hPa NNW 25.7 km/h 33.8 km/h 79% 0 mm 0.00 W/m2
22:45 -4.7 °C -7.7 °C 1025.6 hPa NNW 33.8 km/h 38.6 km/h 80% 0 mm 0.00 W/m2
22:50 -4.8 °C -7.6 °C 1025.6 hPa NNW 22.5 km/h 38.6 km/h 81% 0 mm 0.00 W/m2
22:55 -5 °C -7.8 °C 1025.6 hPa NNW 29 km/h 38.6 km/h 81% 0 mm 0.00 W/m2
23:00 -5.2 °C -8.1 °C 1025.3 hPa NNW 32.2 km/h 38.6 km/h 80% 0 mm 0.00 W/m2
23:05 -5.3 °C -8.1 °C 1025.3 hPa NW 27.4 km/h 38.6 km/h 81% 0 mm 0.00 W/m2
23:10 -5.4 °C -8.2 °C 1025.6 hPa NNW 30.6 km/h 38.6 km/h 81% 0 mm 0.00 W/m2
23:15 -5.6 °C -8.3 °C 1025.3 hPa NNW 27.4 km/h 38.6 km/h 81% 0 mm 0.00 W/m2
23:20 -5.6 °C -8.3 °C 1025.3 hPa NNW 20.9 km/h 35.4 km/h 81% 0 mm 0.00 W/m2
23:25 -5.7 °C -8.4 °C 1025.6 hPa NW 22.5 km/h 35.4 km/h 81% 0 mm 0.00 W/m2
23:30 -5.7 °C -8.4 °C 1025.6 hPa NW 27.4 km/h 35.4 km/h 81% 0 mm 0.00 W/m2
23:35 -5.8 °C -8.7 °C 1025.6 hPa NNW 24.1 km/h 37 km/h 80% 0 mm 0.00 W/m2
23:40 -5.8 °C -8.8 °C 1026 hPa NNW 32.2 km/h 38.6 km/h 79% 0 mm 0.00 W/m2
23:45 -5.8 °C -8.9 °C 1026 hPa NNW 30.6 km/h 38.6 km/h 79% 0 mm 0.00 W/m2
23:50 -5.8 °C -9.4 °C 1026 hPa NNW 32.2 km/h 38.6 km/h 76% 0 mm 0.00 W/m2
23:55 -5.8 °C -9.6 °C 1026.3 hPa NNW 19.3 km/h 41.8 km/h 75% 0 mm 0.00 W/m2
Bismarck, North Dakota, USA
Compliments of Weather Underground - 4 mb